Date,TemperatureHighF,TemperatureAvgF,TemperatureLowF,DewpointHighF,DewpointAvgF,DewpointLowF,HumidityHigh,HumidityAvg,HumidityLow,PressureMaxIn,PressureMinIn,WindSpeedMaxMPH,WindSpeedAvgMPH,GustSpeedMaxMPH,PrecipitationSumIn
2012-12-1,63.4,58.8,57.4,58.9,52.7,-99.9,91,84,75,29.91,29.75,5,1,12,0.64
2012-12-2,68.0,60.7,53.7,62.3,54.4,48.1,88,80,64,29.92,29.58,14,3,28,0.00
2012-12-3,66.2,59.0,53.8,49.1,43.4,33.7,77,57,41,29.73,29.51,18,8,39,0.00
2012-12-4,55.9,51.7,48.4,36.8,28.4,18.6,64,42,23,29.79,29.55,19,6,42,0.00
2012-12-5,61.1,53.5,46.4,49.3,41.9,36.4,78,65,51,29.75,29.48,13,4,25,0.02
2012-12-6,58.3,55.1,51.2,45.8,40.5,35.3,73,58,43,29.68,29.57,12,4,25,0.03
2012-12-7,56.5,51.8,47.5,43.1,37.0,29.4,75,58,37,29.93,29.67,8,2,18,0.00
2012-12-8,59.7,52.9,44.7,52.0,41.8,34.3,80,67,42,29.92,29.66,15,5,29,0.08
2012-12-9,60.3,57.0,51.0,54.0,45.5,35.7,85,66,44,29.65,29.52,12,5,31,0.25
2012-12-10,53.0,49.2,46.6,43.4,35.6,-99.9,80,61,42,29.78,29.54,6,3,16,0.00
2012-12-11,61.9,53.7,46.6,46.9,40.4,33.4,76,61,48,29.80,29.61,11,4,26,0.00
2012-12-12,57.1,52.3,47.3,43.5,34.7,28.1,77,52,34,30.01,29.76,9,2,18,0.04
2012-12-13,52.8,48.5,45.1,39.4,33.7,27.1,70,57,37,30.25,30.01,5,2,13,0.00
2012-12-14,53.7,48.8,45.0,36.8,33.6,31.7,64,56,44,30.28,30.23,7,2,13,0.00
2012-12-15,55.6,51.8,48.7,44.7,39.0,35.5,75,62,54,30.28,30.15,4,1,11,0.00
2012-12-16,61.7,55.1,49.8,51.0,48.3,44.4,86,78,64,30.15,29.86,3,1,7,0.00
2012-12-17,64.7,57.8,52.4,54.5,51.3,48.3,89,80,61,29.86,29.72,8,2,17,0.28
2012-12-18,57.2,54.8,52.4,54.2,49.6,43.5,92,83,61,29.73,29.53,11,3,29,1.04
2012-12-19,55.5,51.7,49.1,44.4,40.9,36.9,78,67,54,29.69,29.56,8,3,20,0.00
2012-12-20,50.1,48.1,46.6,37.7,33.7,31.3,63,57,52,29.89,29.67,11,6,28,0.00
2012-12-21,52.5,48.3,42.1,41.9,35.2,32.0,78,61,47,29.89,29.82,7,1,16,0.00
2012-12-22,51.2,49.4,47.3,44.7,40.1,33.3,81,70,58,29.92,29.75,17,8,38,0.07
2012-12-23,50.3,47.5,45.3,33.9,31.5,28.7,61,54,44,30.07,29.91,14,7,30,0.00
2012-12-24,53.4,47.4,42.1,36.7,33.9,31.0,73,60,50,30.20,30.06,5,2,12,0.00
2012-12-25,57.9,47.8,43.0,46.5,34.7,-99.9,87,67,52,30.21,30.15,5,0,7,0.00
2012-12-26,59.7,51.5,45.4,50.7,46.5,41.8,90,83,67,30.16,30.07,3,0,6,0.00
2012-12-27,62.0,54.9,49.7,51.5,49.1,46.3,90,81,65,30.07,30.00,5,1,10,0.00
2012-12-28,61.1,55.4,51.5,52.6,50.1,48.1,90,83,66,30.01,29.85,3,1,8,0.00
2012-12-29,57.2,53.1,50.9,52.1,49.0,46.8,90,86,80,29.94,29.78,9,2,17,0.84
2012-12-30,52.4,50.4,48.5,49.6,47.4,44.4,92,89,82,30.06,29.92,8,4,22,0.97
2012-12-31,52.4,50.5,49.3,47.2,44.9,43.9,87,81,75,30.09,30.04,6,1,12,0.08